This is the latest recevied weather packets stored in our database for station/object DK1ZX-10. If no packets are shown the sender has not sent any weather packets the latest 10 day(s).
| Time | Temp. | Humidity | Pressure | Rain* | Wind** | Luminosity | Snow |
|---|---|---|---|---|---|---|---|
| 1777235296 | 7.78° C | 45% | 1022.8 hPa | - | - | - | - |
| 1777234096 | 8.33° C | 44% | 1022.6 hPa | - | - | - | - |
| 1777232896 | 10° C | 37% | 1022.6 hPa | - | - | - | - |
| 1777231696 | 11.11° C | 34% | 1022.4 hPa | - | - | - | - |
| 1777230496 | 11.67° C | 33% | 1022.2 hPa | - | - | - | - |
| 1777229296 | 12.22° C | 31% | 1022.1 hPa | - | - | - | - |
| 1777228096 | 12.22° C | 26% | 1021.7 hPa | - | - | - | - |
| 1777226895 | 13.33° C | 25% | 1021.5 hPa | - | - | - | - |
| 1777225695 | 15.56° C | 23% | 1021.3 hPa | - | - | - | - |
| 1777224495 | 16.67° C | 21% | 1021.4 hPa | - | - | - | - |
| 1777223295 | 16.67° C | 22% | 1021.4 hPa | - | - | - | - |
| 1777222095 | 17.22° C | 22% | 1021.5 hPa | - | - | - | - |
| 1777220895 | 17.78° C | 22% | 1021.6 hPa | - | - | - | - |
| 1777219695 | 17.78° C | 22% | 1021.7 hPa | - | - | - | - |
| 1777218495 | 18.89° C | 21% | 1021.6 hPa | - | - | - | - |
| 1777217295 | 20.56° C | 19% | 1021.6 hPa | - | - | - | - |
| 1777216095 | 20.56° C | 19% | 1021.6 hPa | - | - | - | - |
| 1777214895 | 20.56° C | 19% | 1021.7 hPa | - | - | - | - |
| 1777213695 | 21.11° C | 18% | 1021.8 hPa | - | - | - | - |
| 1777212495 | 21.67° C | 19% | 1021.7 hPa | - | - | - | - |
| 1777211295 | 20.56° C | 19% | 1021.8 hPa | - | - | - | - |
| 1777210095 | 20° C | 20% | 1021.9 hPa | - | - | - | - |
| 1777208894 | 18.33° C | 23% | 1022.1 hPa | - | - | - | - |
| 1777207694 | 17.22° C | 25% | 1022.1 hPa | - | - | - | - |
| 1777206494 | 16.67° C | 25% | 1022.2 hPa | - | - | - | - |
* Rain since midnight (hover to see other rain measurements)
** Current wind speed in m/s (hover to see current wind gust speed)